createdAt,value
2023-03-08T00:01:20.009Z,76.99
2023-03-08T00:04:50.149Z,77.01
2023-03-08T00:08:19.822Z,77.01
2023-03-08T00:11:49.566Z,77.00
2023-03-08T00:15:17.018Z,76.95
2023-03-08T00:18:44.699Z,76.83
2023-03-08T00:22:13.233Z,76.91
2023-03-08T00:25:40.985Z,76.97
2023-03-08T00:29:10.414Z,76.99
2023-03-08T00:32:37.625Z,77.00
2023-03-08T00:36:09.134Z,76.95
2023-03-08T00:39:38.426Z,77.00
2023-03-08T00:43:06.931Z,76.81
2023-03-08T00:46:36.367Z,76.89
2023-03-08T00:50:03.094Z,76.79
2023-03-08T00:53:30.014Z,76.73
2023-03-08T00:56:57.053Z,76.64
2023-03-08T01:00:25.405Z,76.54
2023-03-08T01:03:52.514Z,76.46
2023-03-08T01:07:20.051Z,76.55
2023-03-08T01:10:53.189Z,76.50
2023-03-08T01:14:20.220Z,76.43
2023-03-08T01:17:47.253Z,76.42
2023-03-08T01:21:14.886Z,76.42
2023-03-08T01:24:45.480Z,76.44
2023-03-08T01:28:11.953Z,76.38
2023-03-08T01:31:38.964Z,76.32
2023-03-08T01:35:06.381Z,76.46
2023-03-08T01:38:33.250Z,76.30
2023-03-08T01:42:00.674Z,76.16
2023-03-08T01:46:09.893Z,76.29
2023-03-08T01:49:39.147Z,76.25
2023-03-08T01:53:07.834Z,76.09
2023-03-08T01:56:35.182Z,75.94
2023-03-08T02:00:09.140Z,75.89
2023-03-08T02:03:41.662Z,75.99
2023-03-08T02:07:09.364Z,75.93
2023-03-08T02:10:38.994Z,75.94
2023-03-08T02:14:06.314Z,75.99
2023-03-08T02:17:37.314Z,75.83
2023-03-08T02:21:05.742Z,75.91
2023-03-08T02:24:33.724Z,76.11
2023-03-08T02:28:00.408Z,76.02
2023-03-08T02:31:29.627Z,75.83
2023-03-08T02:34:57.287Z,75.70
2023-03-08T02:38:25.522Z,75.51
2023-03-08T02:41:52.122Z,75.50
2023-03-08T02:45:18.810Z,75.61
2023-03-08T02:48:47.091Z,75.41
2023-03-08T02:52:13.963Z,75.61
2023-03-08T02:55:42.592Z,75.26
2023-03-08T02:59:10.304Z,75.37
2023-03-08T03:02:37.623Z,75.15
2023-03-08T03:06:04.658Z,75.16
2023-03-08T03:09:32.496Z,75.19
2023-03-08T03:12:59.749Z,75.09
2023-03-08T03:16:29.926Z,74.90
2023-03-08T03:19:57.395Z,74.92
2023-03-08T03:23:23.936Z,75.05
2023-03-08T03:26:54.793Z,74.98
2023-03-08T03:30:23.571Z,74.82
2023-03-08T03:33:52.066Z,74.83
2023-03-08T03:37:19.783Z,74.73
2023-03-08T03:40:46.469Z,74.63
2023-03-08T03:44:13.379Z,74.69
2023-03-08T03:47:40.569Z,74.71
2023-03-08T03:51:11.540Z,74.63
2023-03-08T03:54:39.357Z,74.58
2023-03-08T03:58:06.307Z,74.49
2023-03-08T04:01:35.060Z,74.43
2023-03-08T04:05:09.235Z,74.54
2023-03-08T04:08:42.262Z,74.60
2023-03-08T04:12:08.870Z,74.64
2023-03-08T04:15:35.934Z,74.55
2023-03-08T04:19:07.398Z,74.58
2023-03-08T04:22:34.537Z,74.50
2023-03-08T04:26:08.584Z,74.53
2023-03-08T04:29:35.618Z,74.38
2023-03-08T04:33:03.173Z,74.41
2023-03-08T04:36:38.128Z,74.35
2023-03-08T04:40:07.600Z,74.30
2023-03-08T04:43:36.177Z,74.25
2023-03-08T04:47:03.996Z,74.28
2023-03-08T04:50:41.460Z,74.28
2023-03-08T04:54:09.228Z,74.21
2023-03-08T04:57:38.850Z,74.44
2023-03-08T05:01:12.660Z,74.47
2023-03-08T05:04:41.676Z,74.29
2023-03-08T05:08:08.860Z,74.24
2023-03-08T05:11:37.392Z,74.05
2023-03-08T05:15:05.732Z,74.18
2023-03-08T05:18:33.070Z,74.14
2023-03-08T05:22:00.415Z,74.09
2023-03-08T05:25:27.728Z,73.93
2023-03-08T05:28:55.189Z,73.99
2023-03-08T05:32:25.844Z,73.94
2023-03-08T05:35:58.607Z,73.88
2023-03-08T05:39:26.699Z,73.91
2023-03-08T05:42:59.021Z,73.90
2023-03-08T05:46:26.014Z,73.94
2023-03-08T05:49:54.304Z,74.05
2023-03-08T05:53:24.081Z,73.96
2023-03-08T05:56:52.367Z,74.03
2023-03-08T06:00:28.008Z,73.98
2023-03-08T06:03:57.321Z,73.91
2023-03-08T06:07:26.480Z,73.81
2023-03-08T06:10:57.105Z,73.91
2023-03-08T06:14:24.057Z,73.83
2023-03-08T06:17:53.427Z,73.84
2023-03-08T06:21:25.132Z,73.79
2023-03-08T06:24:58.873Z,73.82
2023-03-08T06:28:31.471Z,73.84
2023-03-08T06:32:01.669Z,73.81
2023-03-08T06:35:31.276Z,73.91
2023-03-08T06:39:01.237Z,73.85
2023-03-08T06:42:40.727Z,73.72
2023-03-08T06:46:15.856Z,73.92
2023-03-08T06:49:44.250Z,73.68
2023-03-08T06:53:13.127Z,73.60
2023-03-08T06:56:56.217Z,74.00
2023-03-08T07:00:25.888Z,73.86
2023-03-08T07:03:56.485Z,73.86
2023-03-08T07:07:25.940Z,73.84
2023-03-08T07:10:54.024Z,73.50
2023-03-08T07:14:21.207Z,73.71
2023-03-08T07:17:50.125Z,73.72
2023-03-08T07:21:17.061Z,73.73
2023-03-08T07:24:49.305Z,73.69
2023-03-08T07:28:17.624Z,73.64
2023-03-08T07:31:45.133Z,73.54
2023-03-08T07:35:14.732Z,73.41
2023-03-08T07:38:42.986Z,73.70
2023-03-08T07:42:11.546Z,73.52
2023-03-08T07:45:41.855Z,73.36
2023-03-08T07:49:11.990Z,73.14
2023-03-08T07:52:39.216Z,73.25
2023-03-08T07:56:08.108Z,73.38
2023-03-08T07:59:36.186Z,73.44
2023-03-08T08:03:03.319Z,73.26
2023-03-08T08:06:30.712Z,73.36
2023-03-08T08:09:57.603Z,73.33
2023-03-08T08:13:24.739Z,73.25
2023-03-08T08:16:52.075Z,73.12
2023-03-08T08:20:20.860Z,72.94
2023-03-08T08:23:48.331Z,72.68
2023-03-08T08:27:15.479Z,72.65
2023-03-08T08:30:42.875Z,72.47
2023-03-08T08:34:10.066Z,72.31
2023-03-08T08:37:37.278Z,72.42
2023-03-08T08:41:05.256Z,72.15
2023-03-08T08:44:32.703Z,72.13
2023-03-08T08:47:59.761Z,72.10
2023-03-08T08:51:27.435Z,72.12
2023-03-08T08:54:55.269Z,71.94
2023-03-08T08:58:22.088Z,71.92
2023-03-08T09:01:49.261Z,71.56
2023-03-08T09:05:16.943Z,71.35
2023-03-08T09:08:44.263Z,71.19
2023-03-08T09:12:12.055Z,71.32
2023-03-08T09:15:39.481Z,71.35
2023-03-08T09:19:07.203Z,71.10
2023-03-08T09:22:33.915Z,70.96
2023-03-08T09:26:02.580Z,70.98
2023-03-08T09:29:29.846Z,70.92
2023-03-08T09:32:56.786Z,70.75
2023-03-08T09:36:25.080Z,70.85
2023-03-08T09:39:54.023Z,70.52
2023-03-08T09:43:31.785Z,70.46
2023-03-08T09:47:04.996Z,70.52
2023-03-08T09:50:45.885Z,70.15
2023-03-08T09:54:18.635Z,70.13
2023-03-08T09:57:53.562Z,69.35
2023-03-08T10:01:32.298Z,69.56
2023-03-08T10:05:13.705Z,69.45
2023-03-08T10:08:50.153Z,69.06
2023-03-08T10:12:24.892Z,69.25
2023-03-08T10:15:57.833Z,68.99
2023-03-08T10:19:29.130Z,68.75
2023-03-08T10:22:59.764Z,68.53
2023-03-08T10:26:29.524Z,68.30
2023-03-08T10:29:58.619Z,68.26
2023-03-08T10:33:31.143Z,68.24
2023-03-08T10:37:06.632Z,68.48
2023-03-08T10:40:33.634Z,68.03
2023-03-08T10:44:01.603Z,68.16
2023-03-08T10:47:31.777Z,67.83
2023-03-08T10:51:17.131Z,67.74
2023-03-08T10:54:44.757Z,67.50
2023-03-08T10:58:35.100Z,67.42
2023-03-08T11:02:03.750Z,67.77
2023-03-08T11:05:30.949Z,67.94
2023-03-08T11:09:00.761Z,67.87
2023-03-08T11:12:33.219Z,67.59
2023-03-08T11:16:22.793Z,67.20
2023-03-08T11:20:14.975Z,67.35
2023-03-08T11:23:50.578Z,66.62
2023-03-08T11:27:31.702Z,66.86
2023-03-08T11:31:15.395Z,66.51
2023-03-08T11:34:57.150Z,65.84
2023-03-08T11:38:28.313Z,66.00
2023-03-08T11:42:01.048Z,66.39
2023-03-08T11:45:36.008Z,66.19
2023-03-08T11:49:18.722Z,66.36
2023-03-08T11:52:54.125Z,65.81
2023-03-08T11:56:45.749Z,65.51
2023-03-08T12:00:25.015Z,65.24
2023-03-08T12:03:55.656Z,65.12
2023-03-08T12:07:29.896Z,65.40
2023-03-08T12:11:02.113Z,65.12
2023-03-08T12:14:32.039Z,65.13
2023-03-08T12:18:05.469Z,65.43
2023-03-08T12:21:40.221Z,65.43
2023-03-08T12:25:14.778Z,65.46
2023-03-08T12:28:47.910Z,65.47
2023-03-08T12:32:16.008Z,65.49
2023-03-08T12:35:54.078Z,65.43
2023-03-08T12:39:35.210Z,65.59
2023-03-08T12:43:11.152Z,65.60
2023-03-08T12:47:03.002Z,65.76
2023-03-08T12:50:32.209Z,65.85
2023-03-08T12:54:05.541Z,65.80
2023-03-08T12:57:35.020Z,65.64
2023-03-08T13:01:06.041Z,65.73
2023-03-08T13:04:43.068Z,65.68
2023-03-08T13:08:28.801Z,65.39
2023-03-08T13:12:03.411Z,65.52
2023-03-08T13:15:30.217Z,65.37
2023-03-08T13:19:18.737Z,65.40
2023-03-08T13:23:02.805Z,65.33
2023-03-08T13:26:50.995Z,65.17
2023-03-08T13:30:26.995Z,65.02
2023-03-08T13:33:55.911Z,65.04
2023-03-08T13:37:28.188Z,64.87
2023-03-08T13:40:56.633Z,65.15
2023-03-08T13:44:27.099Z,65.35
2023-03-08T13:47:55.049Z,65.18
2023-03-08T13:51:25.249Z,64.83
2023-03-08T13:54:55.767Z,64.79
2023-03-08T13:58:32.398Z,64.75
2023-03-08T14:01:59.985Z,65.00
2023-03-08T14:05:29.163Z,64.79
2023-03-08T14:08:59.665Z,64.63
2023-03-08T14:12:32.988Z,64.68
2023-03-08T14:16:02.145Z,64.70
2023-03-08T14:19:31.501Z,64.82
2023-03-08T14:23:01.344Z,64.46
2023-03-08T14:26:35.051Z,64.38
2023-03-08T14:30:14.386Z,63.89
2023-03-08T14:33:45.959Z,63.53
2023-03-08T14:37:24.607Z,63.20
2023-03-08T14:40:54.709Z,62.99
2023-03-08T14:44:26.808Z,63.13
2023-03-08T14:47:58.540Z,62.89
2023-03-08T14:51:37.013Z,62.64
2023-03-08T14:55:24.002Z,62.90
2023-03-08T14:58:54.137Z,62.45
2023-03-08T15:02:22.305Z,62.46
2023-03-08T15:05:51.450Z,62.39
2023-03-08T15:09:23.348Z,62.29
2023-03-08T15:12:51.025Z,62.48
2023-03-08T15:16:18.615Z,62.11
2023-03-08T15:19:45.611Z,62.41
2023-03-08T15:23:20.849Z,62.06
2023-03-08T15:26:52.971Z,62.45
2023-03-08T15:30:23.246Z,62.19
2023-03-08T15:33:49.797Z,62.18
2023-03-08T15:37:18.536Z,62.30
2023-03-08T15:40:46.111Z,62.22
2023-03-08T15:44:14.090Z,62.40
2023-03-08T15:47:45.170Z,62.08
2023-03-08T15:51:20.599Z,61.95
2023-03-08T15:54:49.845Z,62.15
2023-03-08T15:58:16.834Z,62.35
2023-03-08T16:01:43.841Z,62.40
2023-03-08T16:05:14.265Z,62.51
2023-03-08T16:08:42.558Z,62.14
2023-03-08T16:12:09.973Z,62.47
2023-03-08T16:15:40.408Z,62.20
2023-03-08T16:19:07.636Z,62.38
2023-03-08T16:22:35.294Z,62.47
2023-03-08T16:26:15.292Z,62.81
2023-03-08T16:29:44.274Z,62.68
2023-03-08T16:33:11.079Z,62.66
2023-03-08T16:36:38.568Z,62.42
2023-03-08T16:40:07.601Z,62.32
2023-03-08T16:43:45.683Z,62.42
2023-03-08T16:47:21.199Z,62.49
2023-03-08T16:50:55.313Z,62.59
2023-03-08T16:54:27.920Z,62.59
2023-03-08T16:57:56.152Z,62.71
2023-03-08T17:01:23.736Z,62.58
2023-03-08T17:04:52.532Z,62.61
2023-03-08T17:08:20.135Z,62.61
2023-03-08T17:11:47.230Z,62.58
2023-03-08T17:15:15.872Z,62.76
2023-03-08T17:18:45.070Z,62.71
2023-03-08T17:22:13.889Z,62.90
2023-03-08T17:25:46.677Z,62.88
2023-03-08T17:29:14.633Z,63.09
2023-03-08T17:32:43.423Z,62.98
2023-03-08T17:36:14.009Z,63.01
2023-03-08T17:39:41.854Z,63.17
2023-03-08T17:43:09.500Z,63.13
2023-03-08T17:46:38.495Z,63.31
2023-03-08T17:50:06.790Z,63.40
2023-03-08T17:53:35.192Z,63.61
2023-03-08T17:57:04.880Z,63.90
2023-03-08T18:00:33.360Z,63.93
2023-03-08T18:04:02.171Z,64.12
2023-03-08T18:07:29.888Z,64.02
2023-03-08T18:10:58.125Z,64.01
2023-03-08T18:14:37.758Z,64.05
2023-03-08T18:18:10.024Z,64.06
2023-03-08T18:21:41.262Z,64.10
2023-03-08T18:25:09.352Z,63.89
2023-03-08T18:28:37.270Z,64.13
2023-03-08T18:32:06.111Z,64.15
2023-03-08T18:35:40.482Z,64.08
2023-03-08T18:39:15.468Z,64.31
2023-03-08T18:42:43.721Z,64.27
2023-03-08T18:46:13.221Z,64.28
2023-03-08T18:49:41.985Z,64.32
2023-03-08T18:53:09.344Z,64.37
2023-03-08T18:56:37.613Z,64.45
2023-03-08T19:00:11.169Z,64.49
2023-03-08T19:03:38.389Z,64.53
2023-03-08T19:07:06.255Z,64.61
2023-03-08T19:10:33.609Z,64.53
2023-03-08T19:14:01.686Z,64.68
2023-03-08T19:17:29.118Z,64.70
2023-03-08T19:20:55.912Z,64.80
2023-03-08T19:24:27.078Z,64.92
2023-03-08T19:27:54.213Z,64.87
2023-03-08T19:31:21.804Z,65.05
2023-03-08T19:34:49.506Z,65.05
2023-03-08T19:38:19.063Z,65.25
2023-03-08T19:41:48.872Z,65.24
2023-03-08T19:45:17.706Z,65.23
2023-03-08T19:48:47.607Z,65.42
2023-03-08T19:52:16.097Z,65.44
2023-03-08T19:55:53.782Z,65.50
2023-03-08T19:59:25.185Z,65.23
2023-03-08T20:03:06.673Z,65.38
2023-03-08T20:06:43.488Z,65.17
2023-03-08T20:10:21.963Z,65.28
2023-03-08T20:13:51.887Z,65.27
2023-03-08T20:17:20.208Z,65.38
2023-03-08T20:20:48.555Z,65.12
2023-03-08T20:24:18.568Z,65.05
2023-03-08T20:27:47.442Z,65.21
2023-03-08T20:31:28.028Z,65.25
2023-03-08T20:35:00.285Z,65.22
2023-03-08T20:38:28.907Z,65.30
2023-03-08T20:41:59.125Z,65.23
2023-03-08T20:45:27.640Z,65.25
2023-03-08T20:49:08.382Z,65.26
2023-03-08T20:52:36.863Z,65.12
2023-03-08T20:56:11.701Z,65.17
2023-03-08T20:59:42.136Z,65.30
2023-03-08T21:03:09.475Z,65.27
2023-03-08T21:06:38.001Z,65.42
2023-03-08T21:10:06.090Z,65.36
2023-03-08T21:13:36.021Z,65.35
2023-03-08T21:17:07.150Z,65.29
2023-03-08T21:20:39.627Z,65.42
2023-03-08T21:24:14.378Z,65.59
2023-03-08T21:27:41.919Z,65.61
2023-03-08T21:31:14.691Z,65.75
2023-03-08T21:34:42.305Z,65.88
2023-03-08T21:38:10.262Z,65.85
2023-03-08T21:41:39.913Z,65.94
2023-03-08T21:45:15.511Z,65.93
2023-03-08T21:48:42.319Z,65.92
2023-03-08T21:52:09.762Z,65.88
2023-03-08T21:55:40.679Z,65.81
2023-03-08T21:59:09.981Z,65.88
2023-03-08T22:02:44.797Z,65.67
2023-03-08T22:06:12.035Z,65.73
2023-03-08T22:09:38.737Z,65.67
2023-03-08T22:13:05.714Z,65.78
2023-03-08T22:16:38.065Z,65.64
2023-03-08T22:20:08.135Z,65.78
2023-03-08T22:23:37.968Z,65.82
2023-03-08T22:27:06.687Z,65.83
2023-03-08T22:30:33.965Z,65.89
2023-03-08T22:34:01.585Z,65.89
2023-03-08T22:37:30.580Z,65.93
2023-03-08T22:40:58.102Z,65.96
2023-03-08T22:44:26.027Z,65.95
2023-03-08T22:47:54.159Z,66.09
2023-03-08T22:51:24.605Z,66.04
2023-03-08T22:54:51.538Z,66.05
2023-03-08T22:58:19.637Z,66.12
2023-03-08T23:01:47.223Z,66.27
2023-03-08T23:05:17.309Z,66.27
2023-03-08T23:08:44.393Z,66.38
2023-03-08T23:12:12.114Z,66.43
2023-03-08T23:16:12.836Z,66.35
2023-03-08T23:19:54.273Z,66.40
2023-03-08T23:28:24.372Z,66.59
2023-03-08T23:31:54.520Z,66.54
2023-03-08T23:35:24.645Z,66.36
2023-03-08T23:38:53.995Z,66.35
2023-03-08T23:42:21.661Z,66.29
2023-03-08T23:45:50.892Z,66.19
2023-03-08T23:49:20.354Z,66.14
2023-03-08T23:52:48.637Z,66.29
2023-03-08T23:56:26.856Z,66.18
2023-03-08T23:59:54.835Z,66.29
